Green Island, Iowa
Current Conditions -  °F | °C
As of 1:15 PM on Saturday 25 Oct 2014 (Local Time) from KSFY Reporting Station
Clear Clear  
Wind Chill: 69°   Ceiling: Unl
Heat Index: 69°   Visibility: 10mi
Dew Point: 30°   Wind: 15mph
Humidity: 23%   Direction: 310°NW
Pressure: 30.01"   Gusts: NA
Location:  42.0998°N, 90.3217°W
Report Text: KSFY 251815Z AUTO 31013KT 10SM CLR 21/M01 A3001 RMK AO2 T02081009
Loading
Personal Weather Stations






























Interactive Weather Map
Tropical Storm Tracking
New forecast layout! Learn more

10-Day Weather Forecast

Advertisements
Track Severe Weather on mobile